sensor_id;sensor_type;location;lat;lon;timestamp;temperature;humidity
18717;DHT22;9487;50.892;6.906;2022-11-15T00:00:08;10.10;99.90
18717;DHT22;9487;50.892;6.906;2022-11-15T00:02:36;10.10;99.90
18717;DHT22;9487;50.892;6.906;2022-11-15T00:05:04;10.10;99.90
18717;DHT22;9487;50.892;6.906;2022-11-15T00:07:30;10.10;99.90
18717;DHT22;9487;50.892;6.906;2022-11-15T00:09:57;10.10;99.90
18717;DHT22;9487;50.892;6.906;2022-11-15T00:12:25;10.10;99.90
18717;DHT22;9487;50.892;6.906;2022-11-15T00:14:53;10.10;99.90
18717;DHT22;9487;50.892;6.906;2022-11-15T00:17:20;10.20;99.90
18717;DHT22;9487;50.892;6.906;2022-11-15T00:19:48;10.20;99.90
18717;DHT22;9487;50.892;6.906;2022-11-15T00:22:16;10.20;99.90
18717;DHT22;9487;50.892;6.906;2022-11-15T00:24:43;10.20;99.90
18717;DHT22;9487;50.892;6.906;2022-11-15T00:27:10;10.20;99.90
18717;DHT22;9487;50.892;6.906;2022-11-15T00:29:37;10.20;99.90
18717;DHT22;9487;50.892;6.906;2022-11-15T00:32:04;10.20;99.90
18717;DHT22;9487;50.892;6.906;2022-11-15T00:34:31;10.30;99.90
18717;DHT22;9487;50.892;6.906;2022-11-15T00:36:59;10.30;99.90
18717;DHT22;9487;50.892;6.906;2022-11-15T00:39:26;10.40;99.90
18717;DHT22;9487;50.892;6.906;2022-11-15T00:41:53;10.50;99.90
18717;DHT22;9487;50.892;6.906;2022-11-15T00:44:20;10.50;99.90
18717;DHT22;9487;50.892;6.906;2022-11-15T00:46:47;10.50;99.90
18717;DHT22;9487;50.892;6.906;2022-11-15T00:49:14;10.60;99.90
18717;DHT22;9487;50.892;6.906;2022-11-15T00:51:41;10.70;99.90
18717;DHT22;9487;50.892;6.906;2022-11-15T00:54:10;10.80;99.90
18717;DHT22;9487;50.892;6.906;2022-11-15T00:56:37;10.90;99.90
18717;DHT22;9487;50.892;6.906;2022-11-15T00:59:04;11.00;99.90
18717;DHT22;9487;50.892;6.906;2022-11-15T01:01:30;11.00;99.90
18717;DHT22;9487;50.892;6.906;2022-11-15T01:03:58;10.90;99.90
18717;DHT22;9487;50.892;6.906;2022-11-15T01:06:24;10.90;99.90
18717;DHT22;9487;50.892;6.906;2022-11-15T01:08:51;10.90;99.90
18717;DHT22;9487;50.892;6.906;2022-11-15T01:11:20;10.80;99.90
18717;DHT22;9487;50.892;6.906;2022-11-15T01:13:47;10.90;99.90
18717;DHT22;9487;50.892;6.906;2022-11-15T01:16:16;10.90;99.90
18717;DHT22;9487;50.892;6.906;2022-11-15T01:18:44;10.90;99.90
18717;DHT22;9487;50.892;6.906;2022-11-15T01:21:13;10.80;99.90
18717;DHT22;9487;50.892;6.906;2022-11-15T01:23:41;10.70;99.90
18717;DHT22;9487;50.892;6.906;2022-11-15T01:26:11;10.70;99.90
18717;DHT22;9487;50.892;6.906;2022-11-15T01:28:41;10.70;99.90
18717;DHT22;9487;50.892;6.906;2022-11-15T01:31:12;10.70;99.90
18717;DHT22;9487;50.892;6.906;2022-11-15T01:33:40;10.70;99.90
18717;DHT22;9487;50.892;6.906;2022-11-15T01:36:08;10.70;99.90
18717;DHT22;9487;50.892;6.906;2022-11-15T01:38:37;10.80;99.90
18717;DHT22;9487;50.892;6.906;2022-11-15T01:41:04;10.90;99.90
18717;DHT22;9487;50.892;6.906;2022-11-15T01:43:33;11.00;99.90
18717;DHT22;9487;50.892;6.906;2022-11-15T01:46:08;11.00;99.90
18717;DHT22;9487;50.892;6.906;2022-11-15T01:48:42;11.00;99.90
18717;DHT22;9487;50.892;6.906;2022-11-15T01:51:11;11.00;99.90
18717;DHT22;9487;50.892;6.906;2022-11-15T01:53:41;11.10;99.90
18717;DHT22;9487;50.892;6.906;2022-11-15T01:56:11;11.20;99.90
18717;DHT22;9487;50.892;6.906;2022-11-15T01:58:40;11.10;99.90
18717;DHT22;9487;50.892;6.906;2022-11-15T02:01:09;11.10;99.90
18717;DHT22;9487;50.892;6.906;2022-11-15T02:03:41;11.00;99.90
18717;DHT22;9487;50.892;6.906;2022-11-15T02:06:09;11.00;99.90
18717;DHT22;9487;50.892;6.906;2022-11-15T02:08:36;10.90;99.90
18717;DHT22;9487;50.892;6.906;2022-11-15T02:11:04;10.90;99.90
18717;DHT22;9487;50.892;6.906;2022-11-15T02:13:34;11.00;99.90
18717;DHT22;9487;50.892;6.906;2022-11-15T02:16:08;11.00;99.90
18717;DHT22;9487;50.892;6.906;2022-11-15T02:18:46;11.10;99.90
18717;DHT22;9487;50.892;6.906;2022-11-15T02:21:23;11.10;99.90
18717;DHT22;9487;50.892;6.906;2022-11-15T02:30:04;11.30;99.90
18717;DHT22;9487;50.892;6.906;2022-11-15T02:32:40;11.40;99.90
18717;DHT22;9487;50.892;6.906;2022-11-15T02:35:17;11.40;99.90
18717;DHT22;9487;50.892;6.906;2022-11-15T02:37:51;11.40;99.90
18717;DHT22;9487;50.892;6.906;2022-11-15T02:40:27;11.30;99.90
18717;DHT22;9487;50.892;6.906;2022-11-15T02:43:02;11.30;99.90
18717;DHT22;9487;50.892;6.906;2022-11-15T02:45:51;11.30;99.90
18717;DHT22;9487;50.892;6.906;2022-11-15T02:48:23;11.20;99.90
18717;DHT22;9487;50.892;6.906;2022-11-15T02:50:51;11.20;99.90
18717;DHT22;9487;50.892;6.906;2022-11-15T02:53:23;11.30;99.90
18717;DHT22;9487;50.892;6.906;2022-11-15T02:55:51;11.30;99.90
18717;DHT22;9487;50.892;6.906;2022-11-15T02:58:41;11.30;99.90
18717;DHT22;9487;50.892;6.906;2022-11-15T03:01:17;11.30;99.90
18717;DHT22;9487;50.892;6.906;2022-11-15T03:03:59;11.30;99.90
18717;DHT22;9487;50.892;6.906;2022-11-15T03:06:36;11.30;99.90
18717;DHT22;9487;50.892;6.906;2022-11-15T03:09:08;11.30;99.90
18717;DHT22;9487;50.892;6.906;2022-11-15T03:11:38;11.30;99.90
18717;DHT22;9487;50.892;6.906;2022-11-15T03:14:16;11.20;99.90
18717;DHT22;9487;50.892;6.906;2022-11-15T03:16:48;11.30;99.90
18717;DHT22;9487;50.892;6.906;2022-11-15T03:19:23;11.40;99.90
18717;DHT22;9487;50.892;6.906;2022-11-15T03:21:55;11.50;99.90
18717;DHT22;9487;50.892;6.906;2022-11-15T03:24:25;11.50;99.90
18717;DHT22;9487;50.892;6.906;2022-11-15T03:26:56;11.60;99.90
18717;DHT22;9487;50.892;6.906;2022-11-15T03:29:29;11.60;99.90
18717;DHT22;9487;50.892;6.906;2022-11-15T03:32:01;11.60;99.90
18717;DHT22;9487;50.892;6.906;2022-11-15T03:34:34;11.60;99.90
18717;DHT22;9487;50.892;6.906;2022-11-15T03:37:05;11.70;99.90
18717;DHT22;9487;50.892;6.906;2022-11-15T03:39:33;11.70;99.90
18717;DHT22;9487;50.892;6.906;2022-11-15T03:42:08;11.70;99.90
18717;DHT22;9487;50.892;6.906;2022-11-15T03:44:43;11.80;99.90
18717;DHT22;9487;50.892;6.906;2022-11-15T03:47:17;12.00;99.90
18717;DHT22;9487;50.892;6.906;2022-11-15T03:49:52;12.20;99.90
18717;DHT22;9487;50.892;6.906;2022-11-15T03:52:20;12.40;99.90
18717;DHT22;9487;50.892;6.906;2022-11-15T03:54:49;12.50;99.90
18717;DHT22;9487;50.892;6.906;2022-11-15T03:57:16;12.70;99.90
18717;DHT22;9487;50.892;6.906;2022-11-15T03:59:43;12.70;99.90
18717;DHT22;9487;50.892;6.906;2022-11-15T04:02:10;12.70;99.90
18717;DHT22;9487;50.892;6.906;2022-11-15T04:04:36;12.70;99.90
18717;DHT22;9487;50.892;6.906;2022-11-15T04:07:04;12.70;99.90
18717;DHT22;9487;50.892;6.906;2022-11-15T04:09:31;12.50;99.90
18717;DHT22;9487;50.892;6.906;2022-11-15T04:11:58;12.40;99.90
18717;DHT22;9487;50.892;6.906;2022-11-15T04:14:25;12.20;99.90
18717;DHT22;9487;50.892;6.906;2022-11-15T04:16:52;12.20;99.90
18717;DHT22;9487;50.892;6.906;2022-11-15T04:19:19;12.20;99.90
18717;DHT22;9487;50.892;6.906;2022-11-15T04:22:04;12.10;99.90
18717;DHT22;9487;50.892;6.906;2022-11-15T04:24:57;12.00;99.90
18717;DHT22;9487;50.892;6.906;2022-11-15T04:27:23;12.00;99.90
18717;DHT22;9487;50.892;6.906;2022-11-15T04:29:50;11.90;99.90
18717;DHT22;9487;50.892;6.906;2022-11-15T04:32:17;11.90;99.90
18717;DHT22;9487;50.892;6.906;2022-11-15T04:34:43;11.90;99.90
18717;DHT22;9487;50.892;6.906;2022-11-15T04:37:12;11.90;99.90
18717;DHT22;9487;50.892;6.906;2022-11-15T04:39:37;11.80;99.90
18717;DHT22;9487;50.892;6.906;2022-11-15T04:42:04;11.80;99.90
18717;DHT22;9487;50.892;6.906;2022-11-15T04:44:31;11.90;99.90
18717;DHT22;9487;50.892;6.906;2022-11-15T04:46:58;11.80;99.90
18717;DHT22;9487;50.892;6.906;2022-11-15T04:49:24;11.80;99.90
18717;DHT22;9487;50.892;6.906;2022-11-15T04:51:52;11.90;99.90
18717;DHT22;9487;50.892;6.906;2022-11-15T04:54:20;11.80;99.90
18717;DHT22;9487;50.892;6.906;2022-11-15T04:56:46;11.80;99.90
18717;DHT22;9487;50.892;6.906;2022-11-15T04:59:13;11.80;99.90
18717;DHT22;9487;50.892;6.906;2022-11-15T05:01:40;11.90;99.90
18717;DHT22;9487;50.892;6.906;2022-11-15T05:04:07;11.80;99.90
18717;DHT22;9487;50.892;6.906;2022-11-15T05:06:46;11.90;99.90
18717;DHT22;9487;50.892;6.906;2022-11-15T05:09:13;11.80;99.90
18717;DHT22;9487;50.892;6.906;2022-11-15T05:11:42;11.80;99.90
18717;DHT22;9487;50.892;6.906;2022-11-15T05:14:09;11.70;99.90
18717;DHT22;9487;50.892;6.906;2022-11-15T05:16:36;11.80;99.90
18717;DHT22;9487;50.892;6.906;2022-11-15T05:19:03;11.70;99.90
18717;DHT22;9487;50.892;6.906;2022-11-15T05:21:30;11.70;99.90
18717;DHT22;9487;50.892;6.906;2022-11-15T05:23:57;11.70;99.90
18717;DHT22;9487;50.892;6.906;2022-11-15T05:26:24;11.70;99.90
18717;DHT22;9487;50.892;6.906;2022-11-15T05:28:56;11.70;99.90
18717;DHT22;9487;50.892;6.906;2022-11-15T05:31:24;11.60;99.90
18717;DHT22;9487;50.892;6.906;2022-11-15T05:33:51;11.60;99.90
18717;DHT22;9487;50.892;6.906;2022-11-15T05:36:22;11.50;99.90
18717;DHT22;9487;50.892;6.906;2022-11-15T05:38:51;11.50;99.90
18717;DHT22;9487;50.892;6.906;2022-11-15T05:41:21;11.50;99.90
18717;DHT22;9487;50.892;6.906;2022-11-15T05:43:51;11.40;99.90
18717;DHT22;9487;50.892;6.906;2022-11-15T05:46:19;11.40;99.90
18717;DHT22;9487;50.892;6.906;2022-11-15T05:48:49;11.30;99.90
18717;DHT22;9487;50.892;6.906;2022-11-15T05:51:17;11.30;99.90
18717;DHT22;9487;50.892;6.906;2022-11-15T05:53:46;11.30;99.90
18717;DHT22;9487;50.892;6.906;2022-11-15T05:56:14;11.40;99.90
18717;DHT22;9487;50.892;6.906;2022-11-15T05:58:41;11.30;99.90
18717;DHT22;9487;50.892;6.906;2022-11-15T06:01:08;11.40;99.90
18717;DHT22;9487;50.892;6.906;2022-11-15T06:03:36;11.30;99.90
18717;DHT22;9487;50.892;6.906;2022-11-15T06:06:04;11.40;99.90
18717;DHT22;9487;50.892;6.906;2022-11-15T06:08:30;11.40;99.90
18717;DHT22;9487;50.892;6.906;2022-11-15T06:11:03;11.30;99.90
18717;DHT22;9487;50.892;6.906;2022-11-15T06:13:30;11.30;99.90
18717;DHT22;9487;50.892;6.906;2022-11-15T06:15:57;11.30;99.90
18717;DHT22;9487;50.892;6.906;2022-11-15T06:18:24;11.30;99.90
18717;DHT22;9487;50.892;6.906;2022-11-15T06:20:52;11.30;99.90
18717;DHT22;9487;50.892;6.906;2022-11-15T06:23:19;11.20;99.90
18717;DHT22;9487;50.892;6.906;2022-11-15T06:25:46;11.20;99.90
18717;DHT22;9487;50.892;6.906;2022-11-15T06:28:13;11.10;99.90
18717;DHT22;9487;50.892;6.906;2022-11-15T06:30:39;11.20;99.90
18717;DHT22;9487;50.892;6.906;2022-11-15T06:33:06;11.10;99.90
18717;DHT22;9487;50.892;6.906;2022-11-15T06:35:34;11.10;99.90
18717;DHT22;9487;50.892;6.906;2022-11-15T06:38:04;11.10;99.90
18717;DHT22;9487;50.892;6.906;2022-11-15T06:40:34;11.10;99.90
18717;DHT22;9487;50.892;6.906;2022-11-15T06:43:02;11.10;99.90
18717;DHT22;9487;50.892;6.906;2022-11-15T06:45:29;11.00;99.90
18717;DHT22;9487;50.892;6.906;2022-11-15T06:47:56;11.00;99.90
18717;DHT22;9487;50.892;6.906;2022-11-15T06:50:23;10.90;99.90
18717;DHT22;9487;50.892;6.906;2022-11-15T06:52:50;10.90;99.90
18717;DHT22;9487;50.892;6.906;2022-11-15T06:55:18;10.90;99.90
18717;DHT22;9487;50.892;6.906;2022-11-15T06:57:48;10.90;99.90
18717;DHT22;9487;50.892;6.906;2022-11-15T07:00:16;10.80;99.90
18717;DHT22;9487;50.892;6.906;2022-11-15T07:02:43;10.80;99.90
18717;DHT22;9487;50.892;6.906;2022-11-15T07:05:10;10.80;99.90
18717;DHT22;9487;50.892;6.906;2022-11-15T07:07:37;10.70;99.90
18717;DHT22;9487;50.892;6.906;2022-11-15T07:10:05;10.70;99.90
18717;DHT22;9487;50.892;6.906;2022-11-15T07:12:33;10.70;99.90
18717;DHT22;9487;50.892;6.906;2022-11-15T07:15:00;10.80;99.90
18717;DHT22;9487;50.892;6.906;2022-11-15T07:17:27;10.70;99.90
18717;DHT22;9487;50.892;6.906;2022-11-15T07:19:54;10.70;99.90
18717;DHT22;9487;50.892;6.906;2022-11-15T07:22:21;10.70;99.90
18717;DHT22;9487;50.892;6.906;2022-11-15T07:24:47;10.80;99.90
18717;DHT22;9487;50.892;6.906;2022-11-15T07:27:14;10.80;99.90
18717;DHT22;9487;50.892;6.906;2022-11-15T07:29:42;10.80;99.90
18717;DHT22;9487;50.892;6.906;2022-11-15T07:32:09;10.80;99.90
18717;DHT22;9487;50.892;6.906;2022-11-15T07:34:36;10.90;99.90
18717;DHT22;9487;50.892;6.906;2022-11-15T07:37:03;10.90;99.90
18717;DHT22;9487;50.892;6.906;2022-11-15T07:39:30;10.90;99.90
18717;DHT22;9487;50.892;6.906;2022-11-15T07:41:56;10.90;99.90
18717;DHT22;9487;50.892;6.906;2022-11-15T07:44:37;11.00;99.90
18717;DHT22;9487;50.892;6.906;2022-11-15T07:47:05;11.00;99.90
18717;DHT22;9487;50.892;6.906;2022-11-15T07:49:32;11.10;99.90
18717;DHT22;9487;50.892;6.906;2022-11-15T07:51:59;11.10;99.90
18717;DHT22;9487;50.892;6.906;2022-11-15T07:54:26;11.10;99.90
18717;DHT22;9487;50.892;6.906;2022-11-15T07:56:53;11.30;99.90
18717;DHT22;9487;50.892;6.906;2022-11-15T07:59:19;11.60;99.90
18717;DHT22;9487;50.892;6.906;2022-11-15T08:01:46;11.90;99.90
18717;DHT22;9487;50.892;6.906;2022-11-15T08:04:15;12.00;99.90
18717;DHT22;9487;50.892;6.906;2022-11-15T08:06:41;12.10;99.90
18717;DHT22;9487;50.892;6.906;2022-11-15T08:09:08;12.00;99.90
18717;DHT22;9487;50.892;6.906;2022-11-15T08:11:35;11.80;99.90
18717;DHT22;9487;50.892;6.906;2022-11-15T08:14:02;11.80;99.90
18717;DHT22;9487;50.892;6.906;2022-11-15T08:16:29;11.70;99.90
18717;DHT22;9487;50.892;6.906;2022-11-15T08:18:55;11.70;99.90
18717;DHT22;9487;50.892;6.906;2022-11-15T08:21:24;11.60;99.90
18717;DHT22;9487;50.892;6.906;2022-11-15T08:23:50;11.60;99.90
18717;DHT22;9487;50.892;6.906;2022-11-15T08:26:17;11.60;99.90
18717;DHT22;9487;50.892;6.906;2022-11-15T08:28:44;11.60;99.90
18717;DHT22;9487;50.892;6.906;2022-11-15T08:31:14;11.70;99.90
18717;DHT22;9487;50.892;6.906;2022-11-15T08:33:42;11.70;99.90
18717;DHT22;9487;50.892;6.906;2022-11-15T08:36:13;11.70;99.90
18717;DHT22;9487;50.892;6.906;2022-11-15T08:38:42;11.70;99.90
18717;DHT22;9487;50.892;6.906;2022-11-15T08:41:13;11.80;99.90
18717;DHT22;9487;50.892;6.906;2022-11-15T08:43:42;11.90;99.90
18717;DHT22;9487;50.892;6.906;2022-11-15T08:46:11;11.90;99.90
18717;DHT22;9487;50.892;6.906;2022-11-15T08:48:39;12.00;99.90
18717;DHT22;9487;50.892;6.906;2022-11-15T08:51:05;12.00;99.90
18717;DHT22;9487;50.892;6.906;2022-11-15T08:53:33;12.10;99.90
18717;DHT22;9487;50.892;6.906;2022-11-15T08:56:01;12.10;99.90
18717;DHT22;9487;50.892;6.906;2022-11-15T08:58:28;12.30;99.90
18717;DHT22;9487;50.892;6.906;2022-11-15T09:00:55;12.40;99.90
18717;DHT22;9487;50.892;6.906;2022-11-15T09:03:22;12.50;99.90
18717;DHT22;9487;50.892;6.906;2022-11-15T09:05:48;12.60;99.90
18717;DHT22;9487;50.892;6.906;2022-11-15T09:08:20;12.60;99.90
18717;DHT22;9487;50.892;6.906;2022-11-15T09:10:47;12.70;99.90
18717;DHT22;9487;50.892;6.906;2022-11-15T09:13:15;12.70;99.90
18717;DHT22;9487;50.892;6.906;2022-11-15T09:15:42;12.80;99.90
18717;DHT22;9487;50.892;6.906;2022-11-15T09:18:09;12.80;99.90
18717;DHT22;9487;50.892;6.906;2022-11-15T09:20:36;12.90;99.90
18717;DHT22;9487;50.892;6.906;2022-11-15T09:23:03;13.00;99.90
18717;DHT22;9487;50.892;6.906;2022-11-15T09:25:31;13.10;99.90
18717;DHT22;9487;50.892;6.906;2022-11-15T09:27:58;13.40;99.90
18717;DHT22;9487;50.892;6.906;2022-11-15T09:30:26;13.40;99.90
18717;DHT22;9487;50.892;6.906;2022-11-15T09:32:53;13.30;99.90
18717;DHT22;9487;50.892;6.906;2022-11-15T09:35:19;13.40;99.90
18717;DHT22;9487;50.892;6.906;2022-11-15T09:37:46;13.40;99.90
18717;DHT22;9487;50.892;6.906;2022-11-15T09:40:14;13.50;99.90
18717;DHT22;9487;50.892;6.906;2022-11-15T09:42:57;13.50;99.90
18717;DHT22;9487;50.892;6.906;2022-11-15T09:45:33;13.50;99.90
18717;DHT22;9487;50.892;6.906;2022-11-15T09:50:55;13.40;99.90
18717;DHT22;9487;50.892;6.906;2022-11-15T09:53:27;13.40;99.90
18717;DHT22;9487;50.892;6.906;2022-11-15T09:56:00;13.40;99.90
18717;DHT22;9487;50.892;6.906;2022-11-15T09:58:34;13.40;99.90
18717;DHT22;9487;50.892;6.906;2022-11-15T10:01:07;13.50;99.90
18717;DHT22;9487;50.892;6.906;2022-11-15T10:03:36;13.60;99.90
18717;DHT22;9487;50.892;6.906;2022-11-15T10:06:08;13.70;99.90
18717;DHT22;9487;50.892;6.906;2022-11-15T10:08:46;13.70;99.90
18717;DHT22;9487;50.892;6.906;2022-11-15T10:11:19;13.70;99.90
18717;DHT22;9487;50.892;6.906;2022-11-15T10:13:48;13.70;99.90
18717;DHT22;9487;50.892;6.906;2022-11-15T10:19:32;13.90;99.90
18717;DHT22;9487;50.892;6.906;2022-11-15T10:22:18;14.00;99.90
18717;DHT22;9487;50.892;6.906;2022-11-15T10:24:46;13.90;99.90
18717;DHT22;9487;50.892;6.906;2022-11-15T10:27:15;13.90;99.90
18717;DHT22;9487;50.892;6.906;2022-11-15T10:29:44;14.00;99.90
18717;DHT22;9487;50.892;6.906;2022-11-15T10:32:11;14.10;99.90
18717;DHT22;9487;50.892;6.906;2022-11-15T10:34:40;14.10;99.90
18717;DHT22;9487;50.892;6.906;2022-11-15T10:37:07;14.10;99.90
18717;DHT22;9487;50.892;6.906;2022-11-15T10:39:34;14.20;99.90
18717;DHT22;9487;50.892;6.906;2022-11-15T10:42:16;14.20;99.90
18717;DHT22;9487;50.892;6.906;2022-11-15T10:44:45;14.30;99.90
18717;DHT22;9487;50.892;6.906;2022-11-15T10:47:26;14.20;99.90
18717;DHT22;9487;50.892;6.906;2022-11-15T10:49:57;14.30;99.90
18717;DHT22;9487;50.892;6.906;2022-11-15T10:52:24;14.20;99.90
18717;DHT22;9487;50.892;6.906;2022-11-15T10:54:53;14.30;99.90
18717;DHT22;9487;50.892;6.906;2022-11-15T10:57:23;14.30;99.90
18717;DHT22;9487;50.892;6.906;2022-11-15T10:59:54;14.30;99.90
18717;DHT22;9487;50.892;6.906;2022-11-15T11:02:29;14.50;99.90
18717;DHT22;9487;50.892;6.906;2022-11-15T11:04:58;14.40;99.90
18717;DHT22;9487;50.892;6.906;2022-11-15T11:07:28;14.30;99.90
18717;DHT22;9487;50.892;6.906;2022-11-15T11:10:04;14.40;99.90
18717;DHT22;9487;50.892;6.906;2022-11-15T11:12:33;14.40;99.90
18717;DHT22;9487;50.892;6.906;2022-11-15T11:15:05;14.40;99.90
18717;DHT22;9487;50.892;6.906;2022-11-15T11:17:49;14.40;99.90
18717;DHT22;9487;50.892;6.906;2022-11-15T11:20:24;14.50;99.90
18717;DHT22;9487;50.892;6.906;2022-11-15T11:23:03;14.60;99.90
18717;DHT22;9487;50.892;6.906;2022-11-15T11:25:34;14.70;99.90
18717;DHT22;9487;50.892;6.906;2022-11-15T11:28:21;14.70;99.90
18717;DHT22;9487;50.892;6.906;2022-11-15T11:30:58;14.70;99.90
18717;DHT22;9487;50.892;6.906;2022-11-15T11:33:31;14.80;99.90
18717;DHT22;9487;50.892;6.906;2022-11-15T11:36:08;14.80;99.90
18717;DHT22;9487;50.892;6.906;2022-11-15T11:38:53;14.80;99.90
18717;DHT22;9487;50.892;6.906;2022-11-15T11:41:41;14.70;99.90
18717;DHT22;9487;50.892;6.906;2022-11-15T11:44:18;14.80;99.90
18717;DHT22;9487;50.892;6.906;2022-11-15T11:46:54;14.80;99.90
18717;DHT22;9487;50.892;6.906;2022-11-15T11:49:26;14.90;99.90
18717;DHT22;9487;50.892;6.906;2022-11-15T11:52:02;15.00;99.90
18717;DHT22;9487;50.892;6.906;2022-11-15T11:54:34;15.20;99.90
18717;DHT22;9487;50.892;6.906;2022-11-15T11:57:07;15.10;99.90
18717;DHT22;9487;50.892;6.906;2022-11-15T11:59:41;15.00;99.90
18717;DHT22;9487;50.892;6.906;2022-11-15T12:02:14;14.90;99.90
18717;DHT22;9487;50.892;6.906;2022-11-15T12:04:44;14.80;99.90
18717;DHT22;9487;50.892;6.906;2022-11-15T12:07:17;14.90;99.90
18717;DHT22;9487;50.892;6.906;2022-11-15T12:09:50;14.80;99.90
18717;DHT22;9487;50.892;6.906;2022-11-15T12:12:23;14.80;99.90
18717;DHT22;9487;50.892;6.906;2022-11-15T12:14:54;14.80;99.90
18717;DHT22;9487;50.892;6.906;2022-11-15T12:17:24;14.70;99.90
18717;DHT22;9487;50.892;6.906;2022-11-15T12:19:52;14.70;99.90
18717;DHT22;9487;50.892;6.906;2022-11-15T12:22:32;14.90;99.90
18717;DHT22;9487;50.892;6.906;2022-11-15T12:25:03;14.90;99.90
18717;DHT22;9487;50.892;6.906;2022-11-15T12:27:35;15.00;99.90
18717;DHT22;9487;50.892;6.906;2022-11-15T12:30:09;14.90;99.90
18717;DHT22;9487;50.892;6.906;2022-11-15T12:32:39;14.80;99.90
18717;DHT22;9487;50.892;6.906;2022-11-15T12:35:23;14.80;99.90
18717;DHT22;9487;50.892;6.906;2022-11-15T12:37:52;14.70;99.90
18717;DHT22;9487;50.892;6.906;2022-11-15T12:40:33;14.70;99.90
18717;DHT22;9487;50.892;6.906;2022-11-15T12:45:46;14.60;99.90
18717;DHT22;9487;50.892;6.906;2022-11-15T12:48:47;14.60;99.90
18717;DHT22;9487;50.892;6.906;2022-11-15T12:51:14;14.80;99.90
18717;DHT22;9487;50.892;6.906;2022-11-15T12:53:43;14.90;99.90
18717;DHT22;9487;50.892;6.906;2022-11-15T12:56:22;15.10;99.90
18717;DHT22;9487;50.892;6.906;2022-11-15T12:58:54;15.10;99.90
18717;DHT22;9487;50.892;6.906;2022-11-15T13:01:55;15.00;99.90
18717;DHT22;9487;50.892;6.906;2022-11-15T13:04:25;15.10;99.90
18717;DHT22;9487;50.892;6.906;2022-11-15T13:06:53;15.10;99.90
18717;DHT22;9487;50.892;6.906;2022-11-15T13:09:54;15.10;99.90
18717;DHT22;9487;50.892;6.906;2022-11-15T13:12:55;15.10;99.90
18717;DHT22;9487;50.892;6.906;2022-11-15T13:15:53;15.20;99.90
18717;DHT22;9487;50.892;6.906;2022-11-15T13:18:37;15.20;99.90
18717;DHT22;9487;50.892;6.906;2022-11-15T13:21:18;15.20;99.90
18717;DHT22;9487;50.892;6.906;2022-11-15T13:24:03;15.10;99.90
18717;DHT22;9487;50.892;6.906;2022-11-15T13:26:31;15.10;99.90
18717;DHT22;9487;50.892;6.906;2022-11-15T13:28:59;15.20;99.90
18717;DHT22;9487;50.892;6.906;2022-11-15T13:31:29;15.00;99.90
18717;DHT22;9487;50.892;6.906;2022-11-15T13:33:59;14.80;99.90
18717;DHT22;9487;50.892;6.906;2022-11-15T13:36:29;14.70;99.90
18717;DHT22;9487;50.892;6.906;2022-11-15T13:39:00;14.70;99.90
18717;DHT22;9487;50.892;6.906;2022-11-15T13:41:29;14.60;99.90
18717;DHT22;9487;50.892;6.906;2022-11-15T13:43:58;14.60;99.90
18717;DHT22;9487;50.892;6.906;2022-11-15T13:46:26;14.60;99.90
18717;DHT22;9487;50.892;6.906;2022-11-15T13:48:56;14.60;99.90
18717;DHT22;9487;50.892;6.906;2022-11-15T13:51:31;14.50;99.90
18717;DHT22;9487;50.892;6.906;2022-11-15T13:54:08;14.40;99.90
18717;DHT22;9487;50.892;6.906;2022-11-15T13:56:36;14.40;99.90
18717;DHT22;9487;50.892;6.906;2022-11-15T13:59:10;14.30;99.90
18717;DHT22;9487;50.892;6.906;2022-11-15T14:01:37;14.30;99.90
18717;DHT22;9487;50.892;6.906;2022-11-15T14:04:12;14.20;99.90
18717;DHT22;9487;50.892;6.906;2022-11-15T14:06:45;14.10;99.90
18717;DHT22;9487;50.892;6.906;2022-11-15T14:09:34;14.10;99.90
18717;DHT22;9487;50.892;6.906;2022-11-15T14:14:46;14.00;99.90
18717;DHT22;9487;50.892;6.906;2022-11-15T14:17:20;14.00;99.90
18717;DHT22;9487;50.892;6.906;2022-11-15T14:19:49;14.00;99.90
18717;DHT22;9487;50.892;6.906;2022-11-15T14:22:19;14.00;99.90
18717;DHT22;9487;50.892;6.906;2022-11-15T14:27:30;14.00;99.90
18717;DHT22;9487;50.892;6.906;2022-11-15T14:29:59;14.00;99.90
18717;DHT22;9487;50.892;6.906;2022-11-15T14:32:27;13.90;99.90
18717;DHT22;9487;50.892;6.906;2022-11-15T14:34:56;13.90;99.90
18717;DHT22;9487;50.892;6.906;2022-11-15T14:37:25;13.90;99.90
18717;DHT22;9487;50.892;6.906;2022-11-15T14:39:53;13.90;99.90
18717;DHT22;9487;50.892;6.906;2022-11-15T14:42:21;13.90;99.90
18717;DHT22;9487;50.892;6.906;2022-11-15T14:44:48;13.90;99.90
18717;DHT22;9487;50.892;6.906;2022-11-15T14:47:16;14.00;99.90
18717;DHT22;9487;50.892;6.906;2022-11-15T14:49:44;14.00;99.90
18717;DHT22;9487;50.892;6.906;2022-11-15T14:52:23;14.00;99.90
18717;DHT22;9487;50.892;6.906;2022-11-15T14:54:50;14.00;99.90
18717;DHT22;9487;50.892;6.906;2022-11-15T14:57:17;14.00;99.90
18717;DHT22;9487;50.892;6.906;2022-11-15T14:59:44;14.10;99.90
18717;DHT22;9487;50.892;6.906;2022-11-15T15:02:18;14.00;99.90
18717;DHT22;9487;50.892;6.906;2022-11-15T15:04:46;14.00;99.90
18717;DHT22;9487;50.892;6.906;2022-11-15T15:07:13;14.00;99.90
18717;DHT22;9487;50.892;6.906;2022-11-15T15:09:40;14.00;99.90
18717;DHT22;9487;50.892;6.906;2022-11-15T15:12:15;14.10;99.90
18717;DHT22;9487;50.892;6.906;2022-11-15T15:14:43;14.00;99.90
18717;DHT22;9487;50.892;6.906;2022-11-15T15:17:09;14.00;99.90
18717;DHT22;9487;50.892;6.906;2022-11-15T15:19:38;14.00;99.90
18717;DHT22;9487;50.892;6.906;2022-11-15T15:22:05;14.00;99.90
18717;DHT22;9487;50.892;6.906;2022-11-15T15:24:32;13.90;99.90
18717;DHT22;9487;50.892;6.906;2022-11-15T15:26:58;14.00;99.90
18717;DHT22;9487;50.892;6.906;2022-11-15T15:29:25;14.00;99.90
18717;DHT22;9487;50.892;6.906;2022-11-15T15:31:52;14.00;99.90
18717;DHT22;9487;50.892;6.906;2022-11-15T15:34:19;14.00;99.90
18717;DHT22;9487;50.892;6.906;2022-11-15T15:36:47;14.00;99.90
18717;DHT22;9487;50.892;6.906;2022-11-15T15:39:14;13.90;99.90
18717;DHT22;9487;50.892;6.906;2022-11-15T15:41:41;13.90;99.90
18717;DHT22;9487;50.892;6.906;2022-11-15T15:44:07;13.90;99.90
18717;DHT22;9487;50.892;6.906;2022-11-15T15:46:34;13.90;99.90
18717;DHT22;9487;50.892;6.906;2022-11-15T15:49:01;13.90;99.90
18717;DHT22;9487;50.892;6.906;2022-11-15T15:51:28;13.90;99.90
18717;DHT22;9487;50.892;6.906;2022-11-15T15:53:56;13.90;99.90
18717;DHT22;9487;50.892;6.906;2022-11-15T15:56:23;13.90;99.90
18717;DHT22;9487;50.892;6.906;2022-11-15T15:58:50;13.90;99.90
18717;DHT22;9487;50.892;6.906;2022-11-15T16:01:18;13.80;99.90
18717;DHT22;9487;50.892;6.906;2022-11-15T16:03:45;13.90;99.90
18717;DHT22;9487;50.892;6.906;2022-11-15T16:06:32;13.90;99.90
18717;DHT22;9487;50.892;6.906;2022-11-15T16:09:02;13.90;99.90
18717;DHT22;9487;50.892;6.906;2022-11-15T16:11:28;13.90;99.90
18717;DHT22;9487;50.892;6.906;2022-11-15T16:13:55;13.80;99.90
18717;DHT22;9487;50.892;6.906;2022-11-15T16:16:22;13.90;99.90
18717;DHT22;9487;50.892;6.906;2022-11-15T16:18:49;13.90;99.90
18717;DHT22;9487;50.892;6.906;2022-11-15T16:21:16;13.90;99.90
18717;DHT22;9487;50.892;6.906;2022-11-15T16:23:42;13.90;99.90